Beaverville, Illinois
Current Conditions -  °F | °C
As of 6:55 PM on Wednesday 22 Oct 2014 (Local Time) from KIKK Reporting Station
Clear Clear  
Wind Chill: 41°   Ceiling: Unl
Heat Index: 46°   Visibility: 10mi
Dew Point: 37°   Wind: 8mph
Humidity: 71%   Direction: 40°NE
Pressure: 30.27"   Gusts: NA
Location:  40.95°N, 87.65°W
Report Text: KIKK 222355Z AUTO 04007KT 10SM CLR 08/03 A3027 RMK AO2 T00760027 10142 20076
Loading
Personal Weather Stations






























Interactive Weather Map
Tropical Storm Tracking
New forecast layout! Learn more

10-Day Weather Forecast

Advertisements
Track Severe Weather on mobile